Terminal Aerodrome Forecast
Issued by NWS

Home | Current Version | Previous Version | Text Only | Print | Product List | Glossary On
Versions: 1 2 3 4 5 6 7 8 9 10 11 12
000
FTUS45 KPIH 230500
TAFSUN
TAF
KSUN 230520Z 2306/2406 32008KT P6SM FEW110 BKN180
     FM231800 15010G15KT P6SM BKN100 BKN180
     FM240200 28008KT P6SM SCT100 BKN140
      AMD LTD TO CLD VIS AND WIND TIL 231300=

USA.gov is the U.S. government's official web portal to all federal, state and local government web resources and services.